Omaha, Nebraska
Current Conditions -  °F | °C
As of 8:52 AM on Wednesday 22 Oct 2014 (Local Time) from KOMA Reporting Station
Few Clouds Few Clouds  
Wind Chill: 13°   Ceiling: Unl
Heat Index: 13°   Visibility: 10mi
Dew Point:   Wind: 17mph
Humidity: 67%   Direction: 150°SSE
Pressure: 30.11"   Gusts: NA
Location:  41.26°N, 95.94°W
Report Text: KOMA 221352Z 15015KT 10SM FEW070 13/07 A3011 RMK AO2 SLP195 T01280067
Loading
Personal Weather Stations






























Interactive Weather Map
Tropical Storm Tracking
New forecast layout! Learn more

10-Day Weather Forecast

Advertisements
Track Severe Weather on mobile